CTV957 WIHH-WIBB
Flight info
| Callsign | CTV957 |
|---|---|
| Flight time | N/A |
| Altitude | 36000 |
| Route | DOLTA A585 JATAM |
| Aircraft | A320/M-SDE3FGHIRWY/LB1 |
Departure
| Time | 2026-04-14 02:22 |
|---|---|
| Airport | Halim Perdanakusuma International Airport (WIHH) |
Arrival
| Time | N/A |
|---|---|
| Airport | Sultan Syarif Kasim II International Airport / Roesmin Nurjadin AFB (WIBB) |
| Time | Latitude | Longitude | Altitude | Speed | Heading |
|---|---|---|---|---|---|
| 2026-04-14 02:05 | -6.26551 | 106.88735 | 93 ft | 0 kts | 336° |
| 2026-04-14 02:12 | -6.26559 | 106.88739 | 94 ft | 2 kts | 336° |
| 2026-04-14 02:12 | -6.26575 | 106.88746 | 93 ft | 2 kts | 339° |
| 2026-04-14 02:12 | -6.26590 | 106.88751 | 94 ft | 2 kts | 349° |
| 2026-04-14 02:12 | -6.26607 | 106.88751 | 92 ft | 2 kts | 61° |
| 2026-04-14 02:13 | -6.26612 | 106.88741 | 92 ft | 1 kts | 63° |
| 2026-04-14 02:16 | -6.26610 | 106.88746 | 92 ft | 2 kts | 63° |
| 2026-04-14 02:16 | -6.26592 | 106.88782 | 93 ft | 10 kts | 63° |
| 2026-04-14 02:17 | -6.26551 | 106.88870 | 94 ft | 16 kts | 66° |
| 2026-04-14 02:17 | -6.26539 | 106.88899 | 93 ft | 5 kts | 66° |
| 2026-04-14 02:17 | -6.26513 | 106.88956 | 95 ft | 13 kts | 65° |
| 2026-04-14 02:17 | -6.26505 | 106.89048 | 93 ft | 15 kts | 111° |
| 2026-04-14 02:18 | -6.26546 | 106.89157 | 95 ft | 18 kts | 111° |
| 2026-04-14 02:18 | -6.26582 | 106.89280 | 95 ft | 19 kts | 80° |
| 2026-04-14 02:18 | -6.26522 | 106.89412 | 94 ft | 22 kts | 65° |
| 2026-04-14 02:18 | -6.26455 | 106.89559 | 96 ft | 24 kts | 64° |
| 2026-04-14 02:19 | -6.26383 | 106.89716 | 96 ft | 26 kts | 63° |
| 2026-04-14 02:19 | -6.26305 | 106.89881 | 96 ft | 26 kts | 65° |
| 2026-04-14 02:19 | -6.26227 | 106.90052 | 96 ft | 28 kts | 65° |
| 2026-04-14 02:19 | -6.26155 | 106.90198 | 97 ft | 13 kts | 51° |
| 2026-04-14 02:20 | -6.26127 | 106.90257 | 98 ft | 3 kts | 139° |
| 2026-04-14 02:20 | -6.26137 | 106.90256 | 97 ft | 1 kts | 198° |
| 2026-04-14 02:20 | -6.26139 | 106.90254 | 97 ft | 0 kts | 211° |
| 2026-04-14 02:20 | -6.26147 | 106.90233 | 98 ft | 5 kts | 256° |
| 2026-04-14 02:21 | -6.26156 | 106.90206 | 97 ft | 4 kts | 248° |
| 2026-04-14 02:21 | -6.26159 | 106.90201 | 97 ft | 0 kts | 246° |
| 2026-04-14 02:21 | -6.26184 | 106.90146 | 96 ft | 34 kts | 243° |
| 2026-04-14 02:21 | -6.26395 | 106.89691 | 95 ft | 106 kts | 245° |
| 2026-04-14 02:22 | -6.26786 | 106.88844 | 96 ft | 159 kts | 245° |
| 2026-04-14 02:22 | -6.27281 | 106.87737 | 428 ft | 176 kts | 245° |
| 2026-04-14 02:22 | -6.27790 | 106.86607 | 1057 ft | 179 kts | 245° |
| 2026-04-14 02:22 | -6.28310 | 106.85466 | 1744 ft | 180 kts | 245° |
| 2026-04-14 02:23 | -6.28862 | 106.84264 | 2103 ft | 201 kts | 245° |
| 2026-04-14 02:23 | -6.29464 | 106.82946 | 2604 ft | 209 kts | 249° |
| 2026-04-14 02:23 | -6.29674 | 106.81448 | 2916 ft | 229 kts | 269° |
| 2026-04-14 02:23 | -6.29710 | 106.79765 | 3237 ft | 254 kts | 268° |
| 2026-04-14 02:24 | -6.29761 | 106.77919 | 3477 ft | 271 kts | 268° |
| 2026-04-14 02:24 | -6.29802 | 106.76662 | 3507 ft | 273 kts | 268° |
| 2026-04-14 02:24 | -6.29873 | 106.74746 | 3508 ft | 273 kts | 268° |
| 2026-04-14 02:24 | -6.29951 | 106.72822 | 3775 ft | 276 kts | 268° |
| 2026-04-14 02:25 | -6.30064 | 106.70248 | 5053 ft | 276 kts | 266° |
| 2026-04-14 02:25 | -6.30472 | 106.68364 | 5889 ft | 279 kts | 246° |
| 2026-04-14 02:25 | -6.31111 | 106.67241 | 6433 ft | 280 kts | 234° |
| 2026-04-14 02:25 | -6.32238 | 106.65640 | 7211 ft | 283 kts | 234° |
| 2026-04-14 02:26 | -6.33386 | 106.64020 | 8003 ft | 286 kts | 233° |
| 2026-04-14 02:26 | -6.34548 | 106.62377 | 8781 ft | 289 kts | 233° |
| 2026-04-14 02:26 | -6.35714 | 106.60717 | 9551 ft | 293 kts | 235° |
| 2026-04-14 02:26 | -6.36629 | 106.58912 | 10237 ft | 277 kts | 245° |
| 2026-04-14 02:27 | -6.37362 | 106.57123 | 10853 ft | 283 kts | 255° |
| 2026-04-14 02:27 | -6.37325 | 106.55081 | 11060 ft | 308 kts | 287° |
| 2026-04-14 02:27 | -6.36180 | 106.53198 | 11240 ft | 331 kts | 316° |
| 2026-04-14 02:27 | -6.34162 | 106.51971 | 11490 ft | 350 kts | 338° |
| 2026-04-14 02:28 | -6.31835 | 106.51158 | 12030 ft | 357 kts | 342° |
| 2026-04-14 02:28 | -6.29483 | 106.50408 | 12648 ft | 361 kts | 341° |
| 2026-04-14 02:28 | -6.28682 | 106.50137 | 12864 ft | 363 kts | 341° |
| 2026-04-14 02:28 | -6.28620 | 106.50115 | 12879 ft | 363 kts | 341° |
| 2026-04-14 02:29 | -6.27790 | 106.49844 | 12948 ft | 369 kts | 343° |
| 2026-04-14 02:29 | -6.25336 | 106.49039 | 13610 ft | 369 kts | 338° |
| 2026-04-14 02:29 | -6.22982 | 106.47992 | 14245 ft | 371 kts | 333° |
| 2026-04-14 02:30 | -6.20688 | 106.46798 | 14824 ft | 373 kts | 331° |
| 2026-04-14 02:30 | -6.18405 | 106.45540 | 15400 ft | 376 kts | 330° |
| 2026-04-14 02:30 | -6.16102 | 106.44273 | 15976 ft | 378 kts | 331° |
| 2026-04-14 02:30 | -6.13767 | 106.43026 | 16536 ft | 381 kts | 332° |
| 2026-04-14 02:31 | -6.11398 | 106.41801 | 17091 ft | 384 kts | 333° |
| 2026-04-14 02:31 | -6.09002 | 106.40595 | 17632 ft | 387 kts | 334° |
| 2026-04-14 02:31 | -6.06572 | 106.39389 | 18168 ft | 390 kts | 334° |
| 2026-04-14 02:31 | -6.04170 | 106.38201 | 18628 ft | 393 kts | 334° |
| 2026-04-14 02:32 | -6.01667 | 106.36962 | 19092 ft | 395 kts | 334° |
| 2026-04-14 02:32 | -5.99196 | 106.35736 | 19545 ft | 398 kts | 334° |
| 2026-04-14 02:32 | -5.96709 | 106.34502 | 19990 ft | 400 kts | 334° |